AFO weather

Afton Municipal Airport
Afton, Wyoming, United States

Public forecast

Using degrees Fahrenheit for public forecast. Weather courtesy of forecast.io.

Current aviation weather report (METAR) for Afton Municipal Airport

Retrieved 2019/12/08 23:35 UTC (24 minutes ago):

KAFO 082335Z AUTO 00000KT 1SM -SN OVC016 00/M01 A2984 RMK AO2

Closest aviation forecast (TAF) to Afton Municipal Airport

Closest forecast is Miley Memorial Field, 37.5 nm (69.4 km) ESE. Retrieved 2019/12/08 18:42 UTC (5 hours ago):

TAF KBPI 081739Z 0818/0918 31010KT P6SM VCSH BKN016 FM090500 34008KT P6SM BKN035 FM091100 VRB05KT P6SM SCT040